Time;durP1;ratioP1;P1;durP2;ratioP2;P2;SDS_P1;SDS_P2;PMS_P1;PMS_P2;Temp;Humidity;BMP_temperature;BMP_pressure;BME280_temperature;BME280_humidity;BME280_pressure;Samples;Min_cycle;Max_cycle;Signal;HPM_P1;HPM_P2
2023/07/23 00:01:38;;;;;;;120.50;111.43;;;;;;;;;;5007247;28;20126;-56
2023/07/23 00:04:05;;;;;;;129.93;117.15;;;;;;;;;;4985957;28;20050;-57
2023/07/23 00:06:33;;;;;;;137.93;122.38;;;;;;;;;;5008371;28;20052;-59
2023/07/23 00:09:00;;;;;;;125.50;114.78;;;;;;;;;;5009815;28;20050;-58
2023/07/23 00:11:26;;;;;;;111.88;102.25;;;;;;;;;;5008555;28;20042;-56
2023/07/23 00:13:55;;;;;;;116.53;108.13;;;;;;;;;;5010539;28;20038;-57
2023/07/23 00:16:22;;;;;;;127.00;114.43;;;;;;;;;;4996042;28;20505;-59
2023/07/23 00:18:49;;;;;;;121.55;110.55;;;;;;;;;;4995225;28;20045;-57
2023/07/23 00:21:16;;;;;;;115.68;106.35;;;;;;;;;;5010848;28;20137;-59
2023/07/23 00:23:42;;;;;;;116.60;107.22;;;;;;;;;;4993931;28;20050;-56
2023/07/23 00:26:09;;;;;;;133.43;122.32;;;;;;;;;;5011520;28;20496;-59
2023/07/23 00:28:36;;;;;;;133.43;119.78;;;;;;;;;;4994466;28;20108;-60
2023/07/23 00:31:03;;;;;;;127.10;109.75;;;;;;;;;;5005583;28;20061;-58
2023/07/23 00:33:30;;;;;;;124.68;111.70;;;;;;;;;;5008060;28;20046;-58
2023/07/23 00:35:57;;;;;;;109.00;100.18;;;;;;;;;;5012221;28;20430;-56
2023/07/23 00:38:24;;;;;;;110.03;100.65;;;;;;;;;;4994039;28;20053;-59
2023/07/23 00:40:52;;;;;;;106.72;97.85;;;;;;;;;;4998149;28;20049;-58
2023/07/23 00:43:19;;;;;;;108.95;99.75;;;;;;;;;;5011517;28;20045;-59
2023/07/23 00:45:45;;;;;;;143.43;107.15;;;;;;;;;;4995477;28;20053;-57
2023/07/23 00:48:12;;;;;;;106.35;97.13;;;;;;;;;;5010631;28;20046;-59
2023/07/23 00:50:39;;;;;;;115.78;104.43;;;;;;;;;;4996346;28;20046;-57
2023/07/23 00:53:06;;;;;;;112.55;100.72;;;;;;;;;;4995176;28;20049;-60
2023/07/23 00:55:32;;;;;;;104.80;94.93;;;;;;;;;;4993904;28;20120;-59
2023/07/23 00:57:59;;;;;;;99.15;91.68;;;;;;;;;;4996349;28;20136;-58
2023/07/23 01:00:26;;;;;;;108.90;99.63;;;;;;;;;;4994836;28;20058;-58
2023/07/23 01:02:52;;;;;;;111.38;100.82;;;;;;;;;;5010598;28;20046;-58
2023/07/23 01:05:19;;;;;;;106.25;96.88;;;;;;;;;;4994845;28;20759;-59
2023/07/23 01:07:48;;;;;;;105.75;97.40;;;;;;;;;;5009044;28;20044;-59
2023/07/23 01:10:16;;;;;;;107.13;97.50;;;;;;;;;;5006061;28;20038;-59
2023/07/23 01:12:42;;;;;;;158.82;112.88;;;;;;;;;;4988318;28;20125;-59
2023/07/23 01:15:10;;;;;;;99.72;91.82;;;;;;;;;;4996869;28;20073;-57
2023/07/23 01:17:38;;;;;;;107.10;96.90;;;;;;;;;;5010446;28;20107;-59
2023/07/23 01:20:06;;;;;;;104.82;96.72;;;;;;;;;;5010863;28;20140;-58
2023/07/23 01:22:33;;;;;;;111.50;100.57;;;;;;;;;;5008239;28;20136;-58
2023/07/23 01:25:00;;;;;;;110.80;100.38;;;;;;;;;;4988637;28;20050;-59
2023/07/23 01:27:27;;;;;;;105.45;95.35;;;;;;;;;;5006929;28;20042;-57
2023/07/23 01:29:54;;;;;;;103.70;94.25;;;;;;;;;;4976163;28;20050;-58
2023/07/23 01:32:20;;;;;;;104.35;95.40;;;;;;;;;;5011042;28;20052;-58
2023/07/23 01:34:47;;;;;;;103.10;94.07;;;;;;;;;;4987370;28;20070;-60
2023/07/23 01:37:15;;;;;;;102.88;92.57;;;;;;;;;;5005680;28;20069;-59
2023/07/23 01:39:42;;;;;;;143.20;106.45;;;;;;;;;;4991950;28;20056;-58
2023/07/23 01:42:09;;;;;;;108.57;98.75;;;;;;;;;;4987606;28;20403;-59
2023/07/23 01:44:36;;;;;;;111.35;101.03;;;;;;;;;;4991059;28;20392;-58
2023/07/23 01:47:03;;;;;;;111.30;99.07;;;;;;;;;;4993262;28;20133;-58
2023/07/23 01:49:30;;;;;;;103.85;95.55;;;;;;;;;;4981197;28;20049;-59
2023/07/23 01:51:56;;;;;;;106.03;95.82;;;;;;;;;;5003117;28;20069;-59
2023/07/23 01:54:23;;;;;;;101.72;93.15;;;;;;;;;;4992268;28;20054;-59
2023/07/23 01:56:50;;;;;;;103.47;95.00;;;;;;;;;;5008902;28;20458;-58
2023/07/23 01:59:17;;;;;;;102.85;94.30;;;;;;;;;;4982879;28;20054;-59
2023/07/23 02:04:45;;;;;;;103.70;94.13;;;;;;;;;;4335180;26;20046;-54
2023/07/23 02:07:14;;;;;;;105.47;97.15;;;;;;;;;;5006797;28;20104;-53
2023/07/23 02:09:41;;;;;;;119.60;104.35;;;;;;;;;;5003606;28;20054;-54
2023/07/23 02:12:08;;;;;;;106.32;97.60;;;;;;;;;;5007645;28;20128;-56
2023/07/23 02:14:38;;;;;;;110.93;100.70;;;;;;;;;;5003691;28;20045;-55
2023/07/23 02:17:04;;;;;;;103.82;95.60;;;;;;;;;;5003209;28;20053;-52
2023/07/23 02:19:31;;;;;;;106.20;96.95;;;;;;;;;;4987480;28;20045;-57
2023/07/23 02:21:58;;;;;;;107.43;97.10;;;;;;;;;;4987066;28;20724;-53
2023/07/23 02:24:25;;;;;;;103.32;93.95;;;;;;;;;;5005326;28;20050;-54
2023/07/23 02:26:52;;;;;;;108.05;98.88;;;;;;;;;;4986006;28;20451;-56
2023/07/23 02:29:19;;;;;;;104.22;95.15;;;;;;;;;;4993253;28;20049;-55
2023/07/23 02:31:46;;;;;;;106.47;95.70;;;;;;;;;;5005528;28;20060;-54
2023/07/23 02:34:12;;;;;;;111.97;102.28;;;;;;;;;;4994153;28;20376;-54
2023/07/23 02:36:39;;;;;;;118.65;99.05;;;;;;;;;;4990294;28;20404;-53
2023/07/23 02:39:06;;;;;;;99.25;90.88;;;;;;;;;;5009053;28;20042;-52
2023/07/23 02:41:32;;;;;;;110.22;100.05;;;;;;;;;;4983736;28;20132;-55
2023/07/23 02:43:59;;;;;;;1688.43;381.75;;;;;;;;;;4968945;23;21074;-83
2023/07/23 02:46:26;;;;;;;1354.10;307.25;;;;;;;;;;4860744;28;20050;-84
2023/07/23 02:48:53;;;;;;;1329.80;304.88;;;;;;;;;;4857723;28;20278;-83
2023/07/23 02:51:21;;;;;;;1290.38;299.83;;;;;;;;;;4852115;28;20314;-83
2023/07/23 02:53:48;;;;;;;1307.80;303.10;;;;;;;;;;4845406;28;20043;-83
2023/07/23 02:56:15;;;;;;;1229.78;285.48;;;;;;;;;;4859354;28;20034;-83
2023/07/23 02:58:42;;;;;;;1553.75;348.85;;;;;;;;;;4858712;28;20284;-83
2023/07/23 03:01:12;;;;;;;1530.63;339.63;;;;;;;;;;4839840;28;20049;-83
2023/07/23 03:03:39;;;;;;;1351.82;303.02;;;;;;;;;;4848204;28;20056;-83
2023/07/23 03:06:06;;;;;;;1257.18;283.30;;;;;;;;;;4861524;28;20038;-83
2023/07/23 03:08:32;;;;;;;1392.75;313.38;;;;;;;;;;4857742;28;20062;-83
2023/07/23 03:10:59;;;;;;;1240.20;281.58;;;;;;;;;;4862150;28;21063;-83
2023/07/23 03:13:25;;;;;;;1239.20;281.42;;;;;;;;;;4845549;28;20046;-83
2023/07/23 03:15:53;;;;;;;1341.88;306.52;;;;;;;;;;4855469;28;20289;-83
2023/07/23 03:18:19;;;;;;;1221.60;281.40;;;;;;;;;;4849538;28;20046;-83
2023/07/23 03:20:47;;;;;;;1244.63;282.15;;;;;;;;;;4859627;28;20210;-83
2023/07/23 03:23:14;;;;;;;1492.95;338.73;;;;;;;;;;4860292;28;20042;-83
2023/07/23 03:25:40;;;;;;;1246.57;288.63;;;;;;;;;;4856918;28;20149;-84
2023/07/23 03:28:08;;;;;;;1213.20;279.60;;;;;;;;;;4847638;28;20046;-83
2023/07/23 03:30:34;;;;;;;1409.00;314.23;;;;;;;;;;4863878;28;21105;-83
2023/07/23 03:33:01;;;;;;;1217.13;272.90;;;;;;;;;;4868052;28;20035;-83
2023/07/23 03:35:27;;;;;;;1250.05;282.17;;;;;;;;;;4862965;28;21247;-82
2023/07/23 03:37:54;;;;;;;1582.65;349.33;;;;;;;;;;4854383;28;20077;-83
2023/07/23 03:40:20;;;;;;;1207.72;272.92;;;;;;;;;;4861152;28;20958;-83
2023/07/23 03:42:47;;;;;;;1425.30;319.33;;;;;;;;;;4859704;28;20054;-83
2023/07/23 03:45:14;;;;;;;1268.63;286.58;;;;;;;;;;4865288;28;20936;-83
2023/07/23 03:47:40;;;;;;;1241.93;279.88;;;;;;;;;;4864195;28;20038;-83
2023/07/23 03:50:07;;;;;;;1196.72;273.80;;;;;;;;;;4862490;28;20046;-83
2023/07/23 03:52:34;;;;;;;1502.78;334.13;;;;;;;;;;4848535;28;20089;-83
2023/07/23 03:55:00;;;;;;;1248.75;278.85;;;;;;;;;;4848648;28;20161;-84
2023/07/23 03:57:27;;;;;;;1219.32;277.58;;;;;;;;;;4862706;28;20928;-83
2023/07/23 03:59:54;;;;;;;1420.93;317.63;;;;;;;;;;4858863;28;20047;-83
2023/07/23 04:02:20;;;;;;;1224.97;276.75;;;;;;;;;;4860482;28;20120;-83
2023/07/23 04:04:47;;;;;;;1277.60;293.63;;;;;;;;;;4855066;28;20983;-83
2023/07/23 04:07:14;;;;;;;1335.25;302.05;;;;;;;;;;4864156;28;20042;-83
2023/07/23 04:09:40;;;;;;;1333.60;302.85;;;;;;;;;;4844495;28;20077;-83
2023/07/23 04:12:09;;;;;;;1202.88;278.02;;;;;;;;;;4865685;28;20908;-83
2023/07/23 04:14:42;;;;;;;1301.18;302.77;;;;;;;;;;4845235;28;20741;-83
2023/07/23 04:17:09;;;;;;;;;;;;;;;;;;4866878;28;20042;-84
2023/07/23 04:19:36;;;;;;;1203.20;292.98;;;;;;;;;;4879420;28;19953;-84
2023/07/23 04:22:03;;;;;;;1272.15;308.88;;;;;;;;;;4859887;28;20186;-84
2023/07/23 04:24:30;;;;;;;1238.95;304.08;;;;;;;;;;4864035;28;21146;-83
2023/07/23 04:26:56;;;;;;;1212.82;302.60;;;;;;;;;;4865059;28;20886;-84
2023/07/23 04:29:23;;;;;;;1226.82;317.00;;;;;;;;;;4844315;28;20237;-84
2023/07/23 04:31:49;;;;;;;1454.82;362.98;;;;;;;;;;4860406;28;20050;-84
2023/07/23 04:34:16;;;;;;;1229.50;307.25;;;;;;;;;;4877678;28;20159;-84
2023/07/23 04:36:43;;;;;;;1836.80;442.17;;;;;;;;;;4844597;28;20186;-84
2023/07/23 04:39:09;;;;;;;1285.57;331.25;;;;;;;;;;4868511;28;20065;-83
2023/07/23 04:41:36;;;;;;;1201.10;324.70;;;;;;;;;;4866072;28;20046;-84
2023/07/23 04:44:03;;;;;;;1225.10;320.52;;;;;;;;;;4864857;28;20054;-84
2023/07/23 04:46:29;;;;;;;1610.28;401.65;;;;;;;;;;4860225;28;20100;-84
2023/07/23 04:48:56;;;;;;;1241.88;327.80;;;;;;;;;;4869155;28;20073;-84
2023/07/23 04:51:22;;;;;;;1293.70;338.73;;;;;;;;;;4849398;28;21104;-84
2023/07/23 04:53:49;;;;;;;1444.95;371.65;;;;;;;;;;4864036;28;20051;-84
2023/07/23 04:56:15;;;;;;;1220.60;330.30;;;;;;;;;;4864106;28;20065;-84
2023/07/23 04:58:43;;;;;;;1242.10;336.85;;;;;;;;;;4860731;28;20838;-84
2023/07/23 05:01:11;;;;;;;1341.38;367.42;;;;;;;;;;4861054;28;20049;-85
2023/07/23 05:03:39;;;;;;;1364.50;369.15;;;;;;;;;;4861684;28;20050;-86
2023/07/23 05:06:06;;;;;;;1351.03;363.20;;;;;;;;;;4865538;28;20810;-86
2023/07/23 05:08:33;;;;;;;1333.28;366.52;;;;;;;;;;4858431;28;20050;-85
2023/07/23 05:11:04;;;;;;;1223.53;349.50;;;;;;;;;;4865502;28;20140;-85
2023/07/23 05:13:31;;;;;;;1502.45;404.25;;;;;;;;;;4854239;28;20750;-86
2023/07/23 05:15:58;;;;;;;1503.00;478.98;;;;;;;;;;4858347;28;20038;-85
2023/07/23 05:18:25;;;;;;;1319.68;435.35;;;;;;;;;;4863658;28;20046;-85
2023/07/23 05:20:51;;;;;;;1294.35;426.27;;;;;;;;;;4865007;28;20956;-85
2023/07/23 05:23:18;;;;;;;1507.40;466.73;;;;;;;;;;4856101;28;20058;-85
2023/07/23 05:25:45;;;;;;;1288.68;427.73;;;;;;;;;;4855199;28;20533;-85
2023/07/23 05:28:11;;;;;;;1258.68;414.77;;;;;;;;;;4877605;28;20101;-85
2023/07/23 05:30:38;;;;;;;1422.15;446.45;;;;;;;;;;4859997;28;20049;-85
2023/07/23 05:33:04;;;;;;;1321.53;431.13;;;;;;;;;;4862096;28;20042;-85
2023/07/23 05:35:34;;;;;;;1265.72;414.05;;;;;;;;;;4859174;28;20042;-85
2023/07/23 05:38:00;;;;;;;1574.03;463.35;;;;;;;;;;4854878;28;20898;-85
2023/07/23 05:40:27;;;;;;;1336.03;415.63;;;;;;;;;;4856427;28;20057;-85
2023/07/23 05:42:55;;;;;;;1569.07;471.98;;;;;;;;;;4857538;28;20115;-84
2023/07/23 05:45:22;;;;;;;1288.85;413.80;;;;;;;;;;4864891;28;20046;-85
2023/07/23 05:47:48;;;;;;;1288.75;417.35;;;;;;;;;;4869366;28;20042;-85
2023/07/23 05:50:15;;;;;;;1253.20;415.75;;;;;;;;;;4870917;28;20163;-84
2023/07/23 05:52:42;;;;;;;1297.80;420.08;;;;;;;;;;4866822;28;20870;-84
2023/07/23 05:55:08;;;;;;;1475.82;460.73;;;;;;;;;;4849518;28;20076;-84
2023/07/23 05:57:35;;;;;;;1268.75;422.50;;;;;;;;;;4864593;28;21153;-84
2023/07/23 06:00:02;;;;;;;1376.20;511.90;;;;;;;;;;4868975;28;21206;-84
2023/07/23 06:02:36;;;;;;;1381.25;514.35;;;;;;;;;;4866604;28;20148;-85
2023/07/23 06:05:03;;;;;;;1385.15;508.17;;;;;;;;;;4865866;28;20899;-84
2023/07/23 06:07:31;;;;;;;1322.43;491.33;;;;;;;;;;4864195;28;20042;-84
2023/07/23 06:09:58;;;;;;;1514.13;518.03;;;;;;;;;;4863422;28;20046;-85
2023/07/23 06:12:25;;;;;;;1358.93;492.75;;;;;;;;;;4865816;28;20053;-85
2023/07/23 06:14:51;;;;;;;1312.05;481.65;;;;;;;;;;4866957;28;20050;-85
2023/07/23 06:17:18;;;;;;;1413.45;496.80;;;;;;;;;;4866926;28;20149;-85
2023/07/23 06:19:45;;;;;;;1392.72;493.27;;;;;;;;;;4849935;28;20046;-86
2023/07/23 06:22:11;;;;;;;1351.85;488.40;;;;;;;;;;4867085;28;20907;-84
2023/07/23 06:24:38;;;;;;;1766.38;557.53;;;;;;;;;;4861314;28;20042;-85
2023/07/23 06:27:05;;;;;;;1370.30;495.65;;;;;;;;;;4867326;28;20065;-85
2023/07/23 06:29:32;;;;;;;1331.60;492.67;;;;;;;;;;4868193;28;20109;-86
2023/07/23 06:31:58;;;;;;;1451.00;522.90;;;;;;;;;;4864467;28;20046;-86
2023/07/23 06:34:25;;;;;;;1408.72;515.53;;;;;;;;;;4854603;28;20993;-85
2023/07/23 06:36:51;;;;;;;1690.97;576.05;;;;;;;;;;4856245;28;21133;-85
2023/07/23 06:39:20;;;;;;;1764.63;609.55;;;;;;;;;;4851022;28;21172;-85
2023/07/23 06:41:46;;;;;;;1787.15;635.97;;;;;;;;;;4854056;28;20046;-86
2023/07/23 06:44:14;;;;;;;1469.22;596.30;;;;;;;;;;4847785;28;20053;-85
2023/07/23 06:46:41;;;;;;;1642.78;612.25;;;;;;;;;;4837389;28;20128;-85
2023/07/23 06:49:08;;;;;;;1497.38;591.55;;;;;;;;;;4850445;28;20030;-86
2023/07/23 06:51:35;;;;;;;1474.88;592.40;;;;;;;;;;4851634;28;20073;-85
2023/07/23 06:54:02;;;;;;;1815.45;654.00;;;;;;;;;;4842117;28;20110;-85
2023/07/23 06:56:29;;;;;;;1999.90;711.33;;;;;;;;;;4840115;28;20437;-85
2023/07/23 06:58:55;;;;;;;1592.18;596.35;;;;;;;;;;4853964;28;20066;-84
2023/07/23 07:01:23;;;;;;;1424.22;590.08;;;;;;;;;;4837863;28;21080;-84
2023/07/23 07:03:49;;;;;;;1623.07;623.13;;;;;;;;;;4847246;28;21186;-85
2023/07/23 07:06:16;;;;;;;1501.15;596.97;;;;;;;;;;4857163;28;20049;-85
2023/07/23 07:08:44;;;;;;;1877.10;670.00;;;;;;;;;;4842814;28;20157;-85
2023/07/23 07:11:10;;;;;;;1459.63;580.30;;;;;;;;;;4849971;28;21137;-85
2023/07/23 07:13:43;;;;;;;1423.78;544.15;;;;;;;;;;4832053;28;20065;-85
2023/07/23 07:16:10;;;;;;;1934.30;643.22;;;;;;;;;;4829268;28;20108;-84
2023/07/23 07:18:37;;;;;;;1500.03;552.67;;;;;;;;;;4834732;28;20268;-85
2023/07/23 07:21:04;;;;;;;1616.63;584.97;;;;;;;;;;4843867;28;20055;-86
2023/07/23 07:23:31;;;;;;;1368.32;535.25;;;;;;;;;;4868373;28;20753;-85
2023/07/23 07:25:59;;;;;;;1579.60;563.03;;;;;;;;;;4846706;28;20954;-84
2023/07/23 07:28:27;;;;;;;1530.82;550.13;;;;;;;;;;4858361;28;21241;-86
2023/07/23 07:30:58;;;;;;;1466.30;536.67;;;;;;;;;;4857990;28;20058;-86
2023/07/23 07:33:25;;;;;;;1359.55;513.67;;;;;;;;;;4867657;28;21061;-85
2023/07/23 07:35:56;;;;;;;1567.18;553.05;;;;;;;;;;4862878;28;20106;-86
2023/07/23 07:38:25;;;;;;;1397.40;521.53;;;;;;;;;;4864577;28;20074;-86
2023/07/23 07:40:52;;;;;;;1402.72;514.35;;;;;;;;;;4859182;28;20035;-85
2023/07/23 07:43:19;;;;;;;1528.78;537.88;;;;;;;;;;4860317;28;21017;-85
2023/07/23 07:45:49;;;;;;;1683.35;562.38;;;;;;;;;;4854017;28;20057;-85
2023/07/23 07:48:20;;;;;;;1432.90;511.45;;;;;;;;;;4838414;28;20042;-85
2023/07/23 07:50:48;;;;;;;1819.43;581.60;;;;;;;;;;4847663;28;20132;-85
2023/07/23 07:53:15;;;;;;;1602.43;540.75;;;;;;;;;;4858366;28;21358;-85
2023/07/23 07:55:42;;;;;;;1360.75;504.45;;;;;;;;;;4851817;28;20956;-85
2023/07/23 07:58:13;;;;;;;1881.32;633.55;;;;;;;;;;4852932;28;20035;-85
2023/07/23 08:00:40;;;;;;;1412.90;520.33;;;;;;;;;;4857778;28;20046;-84
2023/07/23 08:03:07;;;;;;;1387.88;521.30;;;;;;;;;;4871719;28;20112;-85
2023/07/23 08:05:35;;;;;;;1319.05;505.23;;;;;;;;;;4854570;28;20880;-85
2023/07/23 08:08:04;;;;;;;1346.43;502.17;;;;;;;;;;4869509;28;20122;-85
2023/07/23 08:10:32;;;;;;;1355.90;499.48;;;;;;;;;;4873402;28;21204;-85
2023/07/23 08:13:01;;;;;;;1396.70;504.88;;;;;;;;;;4867426;28;20135;-85
2023/07/23 08:15:29;;;;;;;1355.75;487.17;;;;;;;;;;4870061;28;20039;-84
2023/07/23 08:17:56;;;;;;;1398.78;498.05;;;;;;;;;;4869374;28;20035;-84
2023/07/23 08:20:23;;;;;;;1313.88;481.75;;;;;;;;;;4868770;28;20637;-85
2023/07/23 08:22:51;;;;;;;1348.72;484.63;;;;;;;;;;4865815;28;20041;-85
2023/07/23 08:25:18;;;;;;;1478.57;509.98;;;;;;;;;;4864903;28;20065;-86
2023/07/23 08:27:45;;;;;;;1492.45;511.20;;;;;;;;;;4865796;28;21209;-85
2023/07/23 08:30:12;;;;;;;1323.63;478.80;;;;;;;;;;4870038;28;20047;-85
2023/07/23 08:32:39;;;;;;;1424.57;500.05;;;;;;;;;;4867903;28;20120;-84
2023/07/23 08:35:06;;;;;;;1396.97;497.20;;;;;;;;;;4870313;28;20035;-85
2023/07/23 08:37:33;;;;;;;1264.15;472.33;;;;;;;;;;4858009;28;20542;-85
2023/07/23 08:39:59;;;;;;;1549.47;522.05;;;;;;;;;;4855386;28;20058;-85
2023/07/23 08:42:46;;;;;;;1579.47;530.83;;;;;;;;;;4868384;28;20312;-85
2023/07/23 08:45:22;;;;;;;1619.13;535.38;;;;;;;;;;4801116;28;20063;-85
2023/07/23 08:47:56;;;;;;;1999.90;643.40;;;;;;;;;;4790412;29;20059;-85
2023/07/23 08:50:23;;;;;;;1638.20;549.55;;;;;;;;;;4781996;29;20162;-85
2023/07/23 08:52:50;;;;;;;1341.68;487.05;;;;;;;;;;4807292;29;20043;-85
2023/07/23 08:55:17;;;;;;;1427.50;493.02;;;;;;;;;;4820153;29;20465;-85
2023/07/23 08:57:44;;;;;;;1444.40;507.58;;;;;;;;;;4814110;29;20980;-85
2023/07/23 09:00:10;;;;;;;1759.70;546.80;;;;;;;;;;4815263;29;20158;-85
2023/07/23 09:02:39;;;;;;;1384.90;495.85;;;;;;;;;;4814955;29;20226;-87
2023/07/23 09:05:05;;;;;;;1397.80;488.95;;;;;;;;;;4813671;29;20059;-85
2023/07/23 09:07:33;;;;;;;1624.65;531.53;;;;;;;;;;4812684;29;21051;-85
2023/07/23 09:10:00;;;;;;;1502.55;512.67;;;;;;;;;;4810078;29;20870;-84
2023/07/23 09:12:27;;;;;;;1403.20;499.27;;;;;;;;;;4815192;29;20071;-85
2023/07/23 09:14:53;;;;;;;1353.57;486.33;;;;;;;;;;4807421;29;20943;-85
2023/07/23 09:17:20;;;;;;;1464.32;505.75;;;;;;;;;;4796759;29;20069;-85
2023/07/23 09:19:48;;;;;;;1439.15;507.48;;;;;;;;;;4801130;29;21133;-85
2023/07/23 09:22:15;;;;;;;1380.00;490.33;;;;;;;;;;4840164;28;20062;-86
2023/07/23 09:24:42;;;;;;;1078.22;430.35;;;;;;;;;;4893304;28;20101;-86
2023/07/23 09:27:12;;;;;;;1392.72;487.77;;;;;;;;;;4888402;28;20070;-89
2023/07/23 09:29:41;;;;;;;1319.03;478.83;;;;;;;;;;4894902;28;20049;-86
2023/07/23 09:32:23;;;;;;;1437.78;500.23;;;;;;;;;;4885971;28;20814;-87
2023/07/23 09:34:51;;;;;;;1307.80;477.25;;;;;;;;;;4885568;28;21153;-83
2023/07/23 09:37:18;;;;;;;1431.70;492.30;;;;;;;;;;4880005;28;20995;-83
2023/07/23 09:39:44;;;;;;;1401.03;492.70;;;;;;;;;;4884676;28;20157;-83
2023/07/23 09:42:12;;;;;;;1475.80;507.60;;;;;;;;;;4873375;28;20069;-83
2023/07/23 09:44:41;;;;;;;1575.22;521.33;;;;;;;;;;4857904;28;20145;-83
2023/07/23 09:47:09;;;;;;;1494.88;510.88;;;;;;;;;;4875129;28;20096;-83
2023/07/23 09:49:36;;;;;;;1625.10;522.55;;;;;;;;;;4872516;28;21169;-83
2023/07/23 09:52:06;;;;;;;1408.10;496.55;;;;;;;;;;4870282;28;21162;-83
2023/07/23 09:54:34;;;;;;;1432.85;500.15;;;;;;;;;;4865362;28;20942;-83
2023/07/23 09:57:01;;;;;;;1918.18;571.58;;;;;;;;;;4863165;28;20156;-83
2023/07/23 09:59:30;;;;;;;1864.50;570.08;;;;;;;;;;4846644;28;20038;-83
2023/07/23 10:01:56;;;;;;;1388.20;480.95;;;;;;;;;;4881327;28;20042;-85
2023/07/23 10:04:23;;;;;;;1282.47;481.75;;;;;;;;;;4890359;28;20153;-85
2023/07/23 10:06:50;;;;;;;1342.82;496.83;;;;;;;;;;4876480;28;20956;-85
2023/07/23 10:09:26;;;;;;;1999.90;673.40;;;;;;;;;;4816203;28;20042;-86
2023/07/23 10:11:56;;;;;;;1397.35;495.92;;;;;;;;;;4855814;28;20060;-85
2023/07/23 10:14:23;;;;;;;1118.15;465.73;;;;;;;;;;4874109;28;20161;-87
2023/07/23 10:16:51;;;;;;;1366.20;510.65;;;;;;;;;;4887905;28;20529;-85
2023/07/23 10:19:19;;;;;;;1440.63;524.33;;;;;;;;;;4865166;28;20042;-85
2023/07/23 10:21:51;;;;;;;1412.70;521.63;;;;;;;;;;4865863;28;21148;-85
2023/07/23 10:24:18;;;;;;;1337.10;516.80;;;;;;;;;;4864969;28;20046;-85
2023/07/23 10:26:48;;;;;;;1389.85;515.30;;;;;;;;;;4865676;28;20049;-84
2023/07/23 10:29:18;;;;;;;1482.97;517.25;;;;;;;;;;4857412;28;20884;-85
2023/07/23 10:31:45;;;;;;;1451.50;509.23;;;;;;;;;;4863834;28;20049;-85
2023/07/23 10:34:21;;;;;;;1419.35;499.95;;;;;;;;;;4860332;28;20476;-85
2023/07/23 10:37:07;;;;;;;1420.15;507.27;;;;;;;;;;4862326;28;20225;-86
2023/07/23 10:39:40;;;;;;;1347.05;509.00;;;;;;;;;;4861015;28;20070;-85
2023/07/23 10:42:07;;;;;;;1360.13;502.73;;;;;;;;;;4864420;28;20061;-85
2023/07/23 10:44:37;;;;;;;1417.05;521.00;;;;;;;;;;4864233;28;20157;-84
2023/07/23 10:47:23;;;;;;;1431.78;518.90;;;;;;;;;;4845130;28;21170;-85
2023/07/23 10:50:09;;;;;;;1399.50;514.53;;;;;;;;;;4864381;28;20996;-84
2023/07/23 10:52:36;;;;;;;1444.75;517.00;;;;;;;;;;4863442;28;20556;-84
2023/07/23 10:55:04;;;;;;;1412.95;516.15;;;;;;;;;;4864889;28;20068;-85
2023/07/23 10:57:31;;;;;;;1368.03;505.90;;;;;;;;;;4864185;28;20126;-85
2023/07/23 10:59:57;;;;;;;1431.00;518.20;;;;;;;;;;4862369;28;20810;-85
2023/07/23 11:02:27;;;;;;;1387.75;503.83;;;;;;;;;;4868090;28;20384;-85
2023/07/23 11:04:57;;;;;;;1396.35;501.95;;;;;;;;;;4865248;28;20851;-85
2023/07/23 11:07:28;;;;;;;1414.82;503.42;;;;;;;;;;4852899;28;20569;-85
2023/07/23 11:09:55;;;;;;;1472.15;520.40;;;;;;;;;;4860437;28;20955;-85
2023/07/23 11:12:24;;;;;;;1444.25;497.70;;;;;;;;;;4863201;28;20129;-84
2023/07/23 11:14:52;;;;;;;1360.75;491.85;;;;;;;;;;4863844;28;20922;-84
2023/07/23 11:17:19;;;;;;;1410.60;498.33;;;;;;;;;;4862945;28;21296;-85
2023/07/23 11:19:47;;;;;;;1416.80;500.25;;;;;;;;;;4861920;28;20031;-84
2023/07/23 11:22:13;;;;;;;1404.13;493.80;;;;;;;;;;4855436;28;20039;-85
2023/07/23 11:24:40;;;;;;;1516.28;505.05;;;;;;;;;;4856191;28;20046;-85
2023/07/23 11:27:09;;;;;;;1568.30;516.75;;;;;;;;;;4854139;28;20050;-84
2023/07/23 11:29:36;;;;;;;1425.40;483.00;;;;;;;;;;4857524;28;20213;-85
2023/07/23 11:32:03;;;;;;;1627.68;522.45;;;;;;;;;;4860351;28;20116;-85
2023/07/23 11:34:31;;;;;;;1624.32;518.53;;;;;;;;;;4857149;28;20140;-84
2023/07/23 11:36:57;;;;;;;1397.85;474.30;;;;;;;;;;4865034;28;20042;-84
2023/07/23 11:39:24;;;;;;;1377.97;461.90;;;;;;;;;;4868755;28;20992;-85
2023/07/23 11:41:52;;;;;;;1433.63;481.48;;;;;;;;;;4864418;28;20069;-83
2023/07/23 11:44:19;;;;;;;1400.07;470.77;;;;;;;;;;4859143;28;20047;-84
2023/07/23 11:46:46;;;;;;;1487.55;480.92;;;;;;;;;;4856661;28;20038;-83
2023/07/23 11:49:13;;;;;;;1594.68;509.95;;;;;;;;;;4856766;28;20037;-84
2023/07/23 11:51:40;;;;;;;1347.47;471.80;;;;;;;;;;4859003;28;20038;-83
2023/07/23 11:54:11;;;;;;;1498.55;478.50;;;;;;;;;;4857054;28;20046;-85
2023/07/23 11:56:38;;;;;;;1767.50;547.55;;;;;;;;;;4847422;28;20039;-84
2023/07/23 11:59:06;;;;;;;1441.63;478.25;;;;;;;;;;4852669;28;20050;-84
2023/07/23 12:01:37;;;;;;;1364.65;465.92;;;;;;;;;;4865435;28;21063;-84
2023/07/23 12:04:04;;;;;;;1536.65;501.83;;;;;;;;;;4853082;28;20049;-84
2023/07/23 12:06:32;;;;;;;1672.68;528.58;;;;;;;;;;4851746;28;20057;-84
2023/07/23 12:08:59;;;;;;;1431.80;479.27;;;;;;;;;;4844521;28;20046;-83
2023/07/23 12:11:27;;;;;;;1389.03;468.20;;;;;;;;;;4847837;28;20189;-84
2023/07/23 12:13:55;;;;;;;1633.97;517.83;;;;;;;;;;4832053;28;20984;-83
2023/07/23 12:16:33;;;;;;;1325.10;445.67;;;;;;;;;;4840979;28;20497;-84
2023/07/23 12:19:03;;;;;;;1999.90;577.53;;;;;;;;;;4833508;28;20057;-83
2023/07/23 12:21:32;;;;;;;1622.68;494.65;;;;;;;;;;4839371;28;20059;-84
2023/07/23 12:24:10;;;;;;;1585.90;502.70;;;;;;;;;;4821552;28;21011;-83
2023/07/23 12:26:36;;;;;;;1429.72;463.63;;;;;;;;;;4857634;28;20109;-84
2023/07/23 12:29:03;;;;;;;1743.40;521.20;;;;;;;;;;4849661;28;21026;-83
2023/07/23 12:31:30;;;;;;;1361.18;458.40;;;;;;;;;;4857816;28;20042;-83
2023/07/23 12:33:57;;;;;;;1922.45;568.13;;;;;;;;;;4854093;28;20042;-82
2023/07/23 12:36:25;;;;;;;1425.10;478.83;;;;;;;;;;4863747;28;21008;-83
2023/07/23 12:38:52;;;;;;;1362.20;463.30;;;;;;;;;;4852806;28;20038;-83
2023/07/23 12:41:19;;;;;;;1620.10;509.80;;;;;;;;;;4852776;28;20229;-84
2023/07/23 12:43:45;;;;;;;1492.68;497.90;;;;;;;;;;4852396;28;20042;-85
2023/07/23 12:46:12;;;;;;;1376.43;459.63;;;;;;;;;;4850507;28;20081;-83
2023/07/23 12:48:39;;;;;;;1800.65;543.92;;;;;;;;;;4857210;28;20046;-84
2023/07/23 12:51:05;;;;;;;1431.07;474.42;;;;;;;;;;4866950;28;20149;-84
2023/07/23 12:53:32;;;;;;;1369.75;468.80;;;;;;;;;;4851819;28;20051;-84
2023/07/23 12:55:58;;;;;;;1541.72;507.38;;;;;;;;;;4855941;28;20054;-84
2023/07/23 12:58:25;;;;;;;1621.53;523.10;;;;;;;;;;4851548;28;20069;-85
2023/07/23 13:00:54;;;;;;;1655.85;548.28;;;;;;;;;;4857206;28;20035;-85
2023/07/23 13:03:20;;;;;;;1657.63;546.45;;;;;;;;;;4860064;28;20042;-84
2023/07/23 13:05:47;;;;;;;1542.50;526.65;;;;;;;;;;4848190;28;20066;-85
2023/07/23 13:08:13;;;;;;;1360.88;500.13;;;;;;;;;;4854501;28;20054;-84
2023/07/23 13:10:40;;;;;;;1678.57;565.55;;;;;;;;;;4836205;28;21254;-84
2023/07/23 13:13:07;;;;;;;1749.90;574.67;;;;;;;;;;4850323;28;20042;-85
2023/07/23 13:15:33;;;;;;;1626.38;543.50;;;;;;;;;;4854221;28;20865;-85
2023/07/23 13:18:00;;;;;;;1401.10;497.98;;;;;;;;;;4854161;28;20042;-84
2023/07/23 13:20:27;;;;;;;1469.13;510.90;;;;;;;;;;4851070;28;20094;-84
2023/07/23 13:22:53;;;;;;;1435.13;503.35;;;;;;;;;;4850022;28;20035;-84
2023/07/23 13:25:20;;;;;;;1662.82;550.10;;;;;;;;;;4856400;28;20245;-84
2023/07/23 13:27:46;;;;;;;1483.45;518.05;;;;;;;;;;4855342;28;20035;-85
2023/07/23 13:30:13;;;;;;;1366.40;498.88;;;;;;;;;;4858582;28;20031;-84
2023/07/23 13:32:39;;;;;;;1614.32;544.17;;;;;;;;;;4854305;28;21011;-85
2023/07/23 13:35:06;;;;;;;1543.53;530.10;;;;;;;;;;4856184;28;20065;-85
2023/07/23 13:37:33;;;;;;;1439.05;513.45;;;;;;;;;;4853156;28;20046;-85
2023/07/23 13:39:59;;;;;;;1656.70;549.40;;;;;;;;;;4857337;28;20050;-85
2023/07/23 13:42:26;;;;;;;1434.88;514.20;;;;;;;;;;4854074;28;20149;-85
2023/07/23 13:44:52;;;;;;;1400.07;500.02;;;;;;;;;;4856460;28;20050;-85
2023/07/23 13:47:19;;;;;;;1720.25;568.08;;;;;;;;;;4856177;28;20997;-85
2023/07/23 13:49:46;;;;;;;1449.63;515.92;;;;;;;;;;4854560;28;20046;-85